Time;durP1;ratioP1;P1;durP2;ratioP2;P2;SDS_P1;SDS_P2;PMS_P1;PMS_P2;Temp;Humidity;BMP_temperature;BMP_pressure;BME280_temperature;BME280_humidity;BME280_pressure;Samples;Min_cycle;Max_cycle;Signal;HPM_P1;HPM_P2
2022/08/11 00:01:24;;;;;;;5.10;2.17;;;17.90;73.00;;;;;;5024340;28;20040;-59
2022/08/11 00:03:53;;;;;;;3.70;2.25;;;17.80;73.40;;;;;;5030566;28;20518;-60
2022/08/11 00:06:30;;;;;;;4.28;2.58;;;17.70;74.40;;;;;;5030506;28;20041;-59
2022/08/11 00:08:57;;;;;;;3.35;2.08;;;17.60;74.10;;;;;;5030347;28;20034;-59
2022/08/11 00:11:53;;;;;;;4.47;2.30;;;17.60;74.70;;;;;;5019478;28;20030;-61
2022/08/11 00:14:27;;;;;;;4.13;2.38;;;17.40;75.60;;;;;;4994117;28;20566;-64
2022/08/11 00:16:59;;;;;;;3.78;2.30;;;17.30;76.00;;;;;;5028500;28;20042;-65
2022/08/11 00:19:34;;;;;;;3.30;2.30;;;17.20;76.50;;;;;;5010857;28;20108;-63
2022/08/11 00:22:02;;;;;;;3.38;2.38;;;17.10;76.70;;;;;;5010693;28;20101;-59
2022/08/11 00:24:39;;;;;;;4.75;2.60;;;17.10;77.00;;;;;;5019887;28;20091;-60
2022/08/11 00:27:06;;;;;;;7.25;2.42;;;17.00;77.50;;;;;;5028991;28;20045;-68
2022/08/11 00:29:32;;;;;;;3.30;2.33;;;17.00;77.40;;;;;;5031293;28;20022;-71
2022/08/11 00:32:00;;;;;;;4.38;2.47;;;16.90;77.40;;;;;;5014188;28;20117;-67
2022/08/11 00:34:32;;;;;;;4.22;2.47;;;16.70;78.10;;;;;;5011550;28;20021;-66
2022/08/11 00:37:08;;;;;;;3.50;2.30;;;16.60;78.60;;;;;;5026953;28;20462;-70
2022/08/11 00:39:45;;;;;;;4.25;2.45;;;16.50;78.70;;;;;;5029826;28;20124;-69
2022/08/11 00:42:29;;;;;;;4.65;3.10;;;16.40;79.00;;;;;;5021051;28;20470;-67
2022/08/11 00:45:13;;;;;;;5.28;2.90;;;16.30;79.70;;;;;;5026280;28;20527;-60
2022/08/11 00:48:02;;;;;;;5.43;2.80;;;16.30;80.00;;;;;;5011568;28;20034;-60
2022/08/11 00:50:48;;;;;;;3.90;2.83;;;16.20;80.40;;;;;;5015325;28;20471;-60
2022/08/11 00:53:29;;;;;;;4.03;2.45;;;16.20;80.30;;;;;;5028346;28;20033;-60
2022/08/11 00:56:17;;;;;;;3.05;2.25;;;16.10;80.40;;;;;;5019136;28;20466;-61
2022/08/11 00:58:54;;;;;;;5.05;2.42;;;16.10;80.90;;;;;;5009360;28;20017;-60
2022/08/11 01:01:46;;;;;;;3.67;2.42;;;16.00;81.00;;;;;;5023903;28;20038;-60
2022/08/11 01:04:39;;;;;;;6.65;2.80;;;16.00;81.20;;;;;;5028802;28;20076;-60
2022/08/11 01:07:28;;;;;;;5.13;2.58;;;15.90;81.30;;;;;;5013606;28;20041;-60
2022/08/11 01:10:24;;;;;;;4.60;2.78;;;15.90;81.60;;;;;;5022006;28;20040;-61
2022/08/11 01:13:18;;;;;;;4.63;2.78;;;15.90;81.70;;;;;;5028547;28;20038;-61
2022/08/11 01:16:04;;;;;;;3.78;2.63;;;15.90;81.80;;;;;;5014098;28;20045;-65
2022/08/11 01:18:49;;;;;;;5.05;2.72;;;15.80;82.00;;;;;;5015236;28;20116;-73
2022/08/11 01:21:14;;;;;;;5.57;2.80;;;15.80;82.20;;;;;;5027337;28;20030;-74
2022/08/11 01:23:46;;;;;;;6.10;2.65;;;15.80;82.70;;;;;;5032828;28;20554;-73
2022/08/11 01:26:29;;;;;;;5.32;2.80;;;15.70;82.90;;;;;;5021781;28;20041;-66
2022/08/11 01:29:14;;;;;;;4.60;2.63;;;15.70;82.80;;;;;;5024594;28;20120;-73
2022/08/11 01:32:16;;;;;;;4.82;3.10;;;15.60;83.20;;;;;;5014704;28;20037;-74
2022/08/11 01:35:15;;;;;;;3.40;2.65;;;15.60;83.90;;;;;;5033015;28;20033;-74
2022/08/11 01:37:47;;;;;;;4.63;2.88;;;15.50;83.70;;;;;;5034416;28;20588;-73
2022/08/11 01:40:24;;;;;;;3.75;2.55;;;15.50;84.10;;;;;;5023395;28;20506;-60
2022/08/11 01:46:00;;;;;;;5.28;2.78;;;15.40;84.70;;;;;;5033674;28;20044;-60
2022/08/11 01:48:39;;;;;;;6.00;3.00;;;15.40;85.00;;;;;;5033477;28;20061;-61
2022/08/11 01:51:18;;;;;;;5.90;3.13;;;15.40;85.20;;;;;;5016395;28;20030;-60
2022/08/11 01:53:58;;;;;;;7.15;3.40;;;15.30;85.50;;;;;;5033790;28;20037;-61
2022/08/11 01:56:45;;;;;;;4.47;2.88;;;15.20;85.60;;;;;;5033484;28;20026;-61
2022/08/11 01:59:49;;;;;;;5.25;2.92;;;15.20;85.90;;;;;;5016029;28;20475;-60
2022/08/11 02:02:46;;;;;;;6.95;2.83;;;15.10;85.90;;;;;;5011803;28;20052;-60
2022/08/11 02:05:46;;;;;;;5.20;3.17;;;15.10;86.90;;;;;;5015793;28;20018;-60
2022/08/11 02:08:29;;;;;;;5.57;2.55;;;15.00;86.90;;;;;;5033639;28;20026;-61
2022/08/11 02:11:29;;;;;;;4.88;3.47;;;15.10;87.00;;;;;;5033035;28;20079;-60
2022/08/11 02:14:20;;;;;;;4.97;2.47;;;15.00;87.70;;;;;;5033455;28;20029;-61
2022/08/11 02:17:13;;;;;;;5.78;3.42;;;15.00;87.30;;;;;;5032117;28;20025;-60
2022/08/11 02:26:04;;;;;;;6.88;3.25;;;15.00;88.80;;;;;;5033653;28;20052;-73
2022/08/11 02:28:48;;;;;;;5.88;3.20;;;15.00;89.20;;;;;;5033844;28;20059;-66
2022/08/11 02:34:55;;;;;;;5.80;3.38;;;15.10;88.70;;;;;;5033834;28;20322;-71
2022/08/11 02:37:32;;;;;;;6.13;3.50;;;15.10;89.20;;;;;;5032680;28;20124;-68
2022/08/11 02:39:58;;;;;;;5.20;3.45;;;15.10;90.00;;;;;;5033546;28;20029;-73
2022/08/11 02:42:46;;;;;;;5.93;3.30;;;15.20;90.10;;;;;;5033282;28;20033;-71
2022/08/11 02:45:15;;;;;;;7.38;3.60;;;15.20;90.00;;;;;;5031573;28;20037;-67
2022/08/11 02:51:08;;;;;;;8.00;3.33;;;15.10;90.10;;;;;;5033585;28;20079;-68
2022/08/11 02:53:45;;;;;;;6.93;3.60;;;15.00;90.50;;;;;;5033079;28;20500;-72
2022/08/11 02:56:43;;;;;;;5.65;3.28;;;15.00;90.40;;;;;;5025953;28;20454;-70
2022/08/11 02:59:51;;;;;;;5.20;3.30;;;15.00;90.40;;;;;;5026891;28;21010;-68
2022/08/11 03:02:33;;;;;;;5.65;3.30;;;15.00;90.60;;;;;;4998000;28;20541;-66
2022/08/11 03:05:22;;;;;;;7.22;3.90;;;15.00;90.90;;;;;;5037094;28;20021;-69
2022/08/11 03:08:18;;;;;;;6.32;3.58;;;15.00;91.00;;;;;;5034998;28;20107;-72
2022/08/11 03:17:23;;;;;;;7.18;3.80;;;14.80;91.30;;;;;;5017782;28;20385;-67
2022/08/11 03:20:46;;;;;;;7.75;3.75;;;14.70;91.40;;;;;;5033874;28;20033;-66
2022/08/11 03:23:27;;;;;;;6.18;3.67;;;14.60;91.80;;;;;;4952035;29;20130;-64
2022/08/11 03:26:12;;;;;;;6.90;3.97;;;14.50;91.80;;;;;;5041390;28;20505;-65
2022/08/11 03:29:07;;;;;;;6.35;3.42;;;14.50;92.00;;;;;;5051723;28;20039;-63
2022/08/11 03:31:43;;;;;;;5.68;3.30;;;14.50;92.10;;;;;;5052504;28;20047;-73
2022/08/11 03:34:16;;;;;;;7.20;3.60;;;14.40;92.20;;;;;;5051571;28;20029;-66
2022/08/11 03:37:03;;;;;;;9.50;4.18;;;14.30;92.30;;;;;;5052225;28;20037;-73
2022/08/11 03:39:53;;;;;;;5.88;3.55;;;14.30;92.50;;;;;;5052417;28;20033;-66
2022/08/11 03:42:32;;;;;;;7.53;4.45;;;14.30;92.80;;;;;;5051497;28;20154;-71
2022/08/11 03:45:56;;;;;;;6.97;3.63;;;14.20;93.10;;;;;;5051655;28;20389;-71
2022/08/11 03:48:40;;;;;;;5.32;3.40;;;14.20;93.10;;;;;;4951297;29;20400;-73
2022/08/11 03:51:17;;;;;;;6.72;4.03;;;14.20;93.30;;;;;;4951830;29;20032;-74
2022/08/11 03:54:14;;;;;;;9.25;3.67;;;14.10;93.70;;;;;;5032083;28;20043;-74
2022/08/11 03:57:17;;;;;;;9.93;4.05;;;14.10;93.90;;;;;;5051516;28;20029;-74
2022/08/11 03:59:46;;;;;;;7.13;4.47;;;14.20;93.90;;;;;;5051800;28;20065;-74
2022/08/11 04:02:46;;;;;;;6.85;4.40;;;14.20;94.20;;;;;;5051181;28;20017;-61
2022/08/11 04:05:30;;;;;;;8.03;4.10;;;14.20;94.20;;;;;;5051225;28;20425;-61
2022/08/11 04:08:17;;;;;;;6.68;4.00;;;14.20;94.30;;;;;;5033676;28;20335;-61
2022/08/11 04:11:10;;;;;;;6.75;4.00;;;14.10;94.50;;;;;;5033141;28;20100;-60
2022/08/11 04:15:59;;;;;;;7.10;4.10;;;14.10;94.70;;;;;;5051386;28;20088;-60
2022/08/11 04:17:06;;;;;;;7.53;4.50;;;14.10;94.40;;;;;;5050593;28;20541;-60
2022/08/11 04:19:41;;;;;;;7.78;4.13;;;14.10;94.50;;;;;;5051003;28;20082;-61
2022/08/11 04:22:47;;;;;;;9.52;4.50;;;14.00;94.70;;;;;;5017551;28;20088;-61
2022/08/11 04:25:40;;;;;;;6.88;3.88;;;13.90;95.10;;;;;;5017852;28;20116;-61
2022/08/11 04:28:27;;;;;;;7.68;4.38;;;13.90;94.90;;;;;;5011575;28;20443;-61
2022/08/11 04:31:19;;;;;;;6.78;4.65;;;13.90;94.90;;;;;;5010721;28;20014;-61
2022/08/11 04:33:51;;;;;;;8.63;4.95;;;13.90;95.10;;;;;;5011524;28;20721;-60
2022/08/11 04:40:10;;;;;;;7.70;5.00;;;13.90;95.30;;;;;;5011177;28;20112;-61
2022/08/11 04:43:25;;;;;;;7.07;4.70;;;13.90;95.40;;;;;;5011719;28;20386;-66
2022/08/11 04:45:59;;;;;;;6.90;4.43;;;13.90;95.40;;;;;;5010818;28;20026;-65
2022/08/11 05:01:48;;;;;;;8.23;5.47;;;14.10;96.00;;;;;;5030443;28;20051;-65
2022/08/11 05:08:18;;;;;;;8.57;4.88;;;14.20;96.10;;;;;;5024864;28;20461;-68
2022/08/11 05:11:01;;;;;;;8.60;4.95;;;14.30;96.00;;;;;;5025173;28;20037;-66
2022/08/11 05:37:01;;;;;;;8.85;5.40;;;15.40;95.70;;;;;;5028240;28;20115;-72
2022/08/11 05:56:19;;;;;;;9.15;5.95;;;16.20;95.00;;;;;;5035268;28;20534;-70
2022/08/11 05:58:54;;;;;;;9.82;6.10;;;16.30;94.90;;;;;;5034469;28;20025;-71
2022/08/11 06:01:24;;;;;;;9.88;5.75;;;16.40;94.80;;;;;;5028649;28;20076;-76
2022/08/11 06:06:39;;;;;;;8.48;5.60;;;16.60;94.60;;;;;;5033823;28;20140;-70
2022/08/11 06:09:06;;;;;;;8.73;5.72;;;16.70;94.50;;;;;;5033483;28;20022;-70
2022/08/11 06:11:41;;;;;;;10.23;6.75;;;16.70;94.40;;;;;;5034108;28;20029;-69
2022/08/11 06:14:09;;;;;;;10.80;6.50;;;16.90;94.30;;;;;;5034032;28;20013;-71
2022/08/11 06:16:35;;;;;;;9.20;5.93;;;17.00;94.20;;;;;;5033784;28;20531;-71
2022/08/11 06:19:02;;;;;;;8.73;5.95;;;17.10;94.00;;;;;;5034128;28;20100;-70
2022/08/11 06:21:28;;;;;;;8.98;5.90;;;17.20;93.80;;;;;;5034188;28;20029;-71
2022/08/11 06:23:54;;;;;;;11.48;6.65;;;17.30;93.60;;;;;;5015411;28;20068;-67
2022/08/11 06:26:20;;;;;;;11.00;6.03;;;17.40;93.50;;;;;;5016334;28;20112;-64
2022/08/11 06:28:47;;;;;;;10.15;6.43;;;17.50;93.20;;;;;;5033735;28;20021;-68
2022/08/11 06:31:17;;;;;;;13.45;6.88;;;17.60;92.90;;;;;;5032747;28;20029;-66
2022/08/11 06:33:49;;;;;;;8.68;5.80;;;17.70;92.80;;;;;;5016051;28;20120;-71
2022/08/11 06:36:33;;;;;;;9.00;4.82;;;17.80;92.50;;;;;;5015286;28;20108;-70
2022/08/11 06:39:06;;;;;;;10.07;5.47;;;17.80;92.10;;;;;;5033340;28;20048;-68
2022/08/11 06:41:52;;;;;;;9.35;4.97;;;17.80;91.90;;;;;;5033622;28;20041;-61
2022/08/11 06:44:32;;;;;;;7.13;4.80;;;18.00;91.80;;;;;;5032685;28;20033;-61
2022/08/11 06:47:07;;;;;;;8.50;5.25;;;18.20;91.30;;;;;;5033159;28;20029;-59
2022/08/11 06:52:35;;;;;;;7.40;4.57;;;18.40;90.70;;;;;;5032508;28;20500;-59
2022/08/11 06:55:14;;;;;;;7.32;4.82;;;18.50;90.30;;;;;;5032901;28;20546;-60
2022/08/11 07:00:32;;;;;;;8.38;4.28;;;18.70;89.70;;;;;;5033222;28;20048;-61
2022/08/11 07:03:16;;;;;;;5.35;3.70;;;18.80;88.90;;;;;;5032415;28;20025;-61
2022/08/11 07:05:54;;;;;;;5.47;3.20;;;18.90;88.00;;;;;;5032313;28;20040;-64
2022/08/11 07:17:48;;;;;;;6.97;3.75;;;19.40;84.30;;;;;;5032931;28;20032;-61
2022/08/11 07:28:59;;;;;;;4.18;2.50;;;20.00;79.90;;;;;;5032834;28;20028;-63
2022/08/11 07:31:31;;;;;;;4.25;2.67;;;20.10;79.40;;;;;;5032581;28;20379;-65
2022/08/11 07:34:20;;;;;;;4.97;3.25;;;20.20;78.80;;;;;;5031553;28;20108;-61
2022/08/11 07:37:01;;;;;;;4.07;2.60;;;20.40;77.90;;;;;;5023259;28;20188;-60
2022/08/11 07:39:30;;;;;;;4.18;2.38;;;20.50;77.00;;;;;;5031847;28;20021;-61
2022/08/11 07:41:57;;;;;;;4.57;3.00;;;20.60;76.00;;;;;;5032196;28;20034;-63
2022/08/11 07:44:27;;;;;;;4.00;2.80;;;20.80;74.50;;;;;;5032311;28;20028;-64
2022/08/11 07:52:33;;;;;;;4.38;2.55;;;21.10;73.40;;;;;;5032125;28;20535;-62
2022/08/11 07:55:15;;;;;;;7.80;2.40;;;21.30;72.50;;;;;;5031166;28;20471;-70
2022/08/11 08:19:47;;;;;;;5.03;2.30;;;22.40;68.00;;;;;;5032187;28;20036;-67
2022/08/11 08:22:18;;;;;;;5.78;2.88;;;22.50;67.60;;;;;;5030791;28;20045;-60
2022/08/11 08:24:44;;;;;;;3.53;2.03;;;22.70;64.80;;;;;;5032002;28;20021;-70
2022/08/11 08:27:13;;;;;;;4.43;1.98;;;22.80;64.20;;;;;;5031308;28;20030;-68
2022/08/11 08:32:26;;;;;;;2.80;1.98;;;23.00;64.50;;;;;;5031630;28;20103;-71
2022/08/11 08:34:54;;;;;;;4.57;2.13;;;23.10;64.50;;;;;;5031382;28;20313;-71
2022/08/11 08:37:22;;;;;;;3.38;1.90;;;23.20;63.60;;;;;;5030885;28;20088;-69
2022/08/11 08:39:49;;;;;;;3.55;2.10;;;23.30;63.50;;;;;;5031488;28;20052;-70
2022/08/11 08:42:21;;;;;;;3.75;2.17;;;23.40;64.20;;;;;;5031429;28;20032;-68
2022/08/11 08:44:55;;;;;;;3.53;2.05;;;23.50;63.40;;;;;;5030885;28;20179;-68
2022/08/11 08:47:23;;;;;;;3.63;1.90;;;23.60;63.00;;;;;;5031628;28;20060;-62
2022/08/11 08:49:54;;;;;;;5.25;2.30;;;23.70;62.40;;;;;;5030369;28;20028;-61
2022/08/11 08:52:21;;;;;;;;;;;23.80;61.30;;;;;;5031682;28;20052;-62
2022/08/11 08:55:02;;;;;;;5.55;2.65;;;23.90;60.70;;;;;;5031261;28;19912;-62
2022/08/11 08:57:31;;;;;;;;;;;24.00;59.60;;;;;;5030977;28;20467;-63
2022/08/11 08:59:58;;;;;;;3.42;2.08;;;24.10;59.70;;;;;;5013262;28;20046;-63
2022/08/11 09:02:26;;;;;;;7.22;2.50;;;24.10;59.20;;;;;;5031145;28;20061;-61
2022/08/11 09:04:52;;;;;;;5.25;2.40;;;24.20;59.10;;;;;;5030442;28;20053;-61
2022/08/11 09:07:22;;;;;;;4.00;2.70;;;24.30;58.80;;;;;;5030916;28;20061;-61
2022/08/11 09:09:52;;;;;;;2.33;1.88;;;24.40;58.10;;;;;;5031176;28;20014;-60
2022/08/11 09:12:20;;;;;;;4.60;2.03;;;24.50;58.30;;;;;;5030336;28;20045;-61
2022/08/11 09:15:03;;;;;;;3.33;2.28;;;24.60;57.90;;;;;;5013597;28;20021;-63
2022/08/11 09:17:30;;;;;;;3.20;2.30;;;24.60;57.00;;;;;;5031068;28;20025;-63
2022/08/11 09:20:04;;;;;;;3.90;2.33;;;24.80;55.30;;;;;;5030341;28;20021;-60
2022/08/11 09:28:09;;;;;;;2.85;1.90;;;25.30;55.30;;;;;;5034101;28;19958;-60
2022/08/11 09:30:35;;;;;;;5.05;2.13;;;25.40;55.60;;;;;;5035317;28;20021;-63
2022/08/11 09:33:03;;;;;;;2.80;1.77;;;25.40;54.90;;;;;;5033751;28;20032;-63
2022/08/11 09:35:33;;;;;;;4.85;2.30;;;25.60;55.10;;;;;;5034876;28;20024;-60
2022/08/11 09:40:48;;;;;;;4.97;2.30;;;25.80;53.60;;;;;;5033953;28;20047;-61
2022/08/11 09:46:02;;;;;;;3.08;1.98;;;25.90;52.90;;;;;;5033814;28;20083;-62
2022/08/11 09:48:30;;;;;;;2.80;1.90;;;26.00;52.30;;;;;;5034710;28;20127;-70
2022/08/11 09:50:59;;;;;;;3.67;2.15;;;26.20;52.10;;;;;;5034250;28;20028;-71
2022/08/11 09:53:27;;;;;;;4.03;2.70;;;26.20;51.90;;;;;;5034112;28;20029;-69
2022/08/11 09:55:54;;;;;;;5.18;2.03;;;26.30;51.80;;;;;;5034139;28;20022;-67
2022/08/11 09:58:21;;;;;;;3.20;2.15;;;26.40;51.20;;;;;;5034582;28;20095;-65
2022/08/11 10:00:49;;;;;;;2.42;1.83;;;26.40;50.80;;;;;;5033831;28;20022;-66
2022/08/11 10:03:20;;;;;;;3.25;2.00;;;26.50;51.20;;;;;;5034189;28;20596;-64
2022/08/11 10:08:36;;;;;;;4.18;2.53;;;26.70;49.90;;;;;;5033679;28;20033;-61
2022/08/11 10:11:02;;;;;;;2.80;2.08;;;26.70;49.00;;;;;;5016411;28;20427;-62
2022/08/11 10:15:32;;;;;;;2.90;1.90;;;26.80;48.60;;;;;;5033772;28;20032;-61
2022/08/11 10:16:25;;;;;;;3.88;2.13;;;26.80;47.80;;;;;;5033129;28;20026;-60
2022/08/11 10:18:51;;;;;;;2.65;1.70;;;26.90;48.00;;;;;;5033617;28;20048;-61
2022/08/11 10:21:29;;;;;;;3.78;2.13;;;27.00;47.70;;;;;;5033371;28;20030;-61
2022/08/11 10:26:55;;;;;;;3.72;2.03;;;27.00;45.50;;;;;;5034148;28;20521;-61
2022/08/11 10:35:12;;;;;;;6.18;2.38;;;27.40;44.80;;;;;;5033218;28;20451;-61
2022/08/11 10:37:39;;;;;;;1.80;1.63;;;27.40;43.10;;;;;;5033121;28;20121;-63
2022/08/11 10:40:07;;;;;;;2.45;1.63;;;27.50;44.40;;;;;;5033029;28;20030;-61
2022/08/11 10:48:21;;;;;;;;;;;27.60;43.40;;;;;;4972815;28;20035;-61
2022/08/11 10:59:07;;;;;;;2.38;2.08;;;27.80;42.50;;;;;;5033370;28;20093;-61
2022/08/11 11:01:36;;;;;;;4.53;2.00;;;27.80;42.90;;;;;;5033280;28;20025;-62
2022/08/11 11:04:14;;;;;;;2.35;1.70;;;27.80;42.60;;;;;;5032203;28;20024;-61
2022/08/11 11:07:04;;;;;;;1.98;1.60;;;27.90;42.60;;;;;;5015431;28;20067;-61
2022/08/11 11:09:38;;;;;;;4.38;1.95;;;27.90;42.60;;;;;;5033365;28;20034;-60
2022/08/11 11:18:00;;;;;;;2.45;1.50;;;28.00;42.90;;;;;;5032118;28;20129;-61
2022/08/11 11:20:48;;;;;;;3.10;1.92;;;28.00;42.50;;;;;;5032869;28;20165;-61
2022/08/11 11:23:18;;;;;;;2.50;1.60;;;28.10;41.10;;;;;;5032548;28;20029;-61
2022/08/11 11:26:08;;;;;;;3.75;1.85;;;28.20;40.80;;;;;;5032098;28;20112;-62
2022/08/11 11:28:54;;;;;;;3.33;1.83;;;28.30;39.60;;;;;;5015586;28;20021;-63
2022/08/11 11:31:54;;;;;;;2.65;1.60;;;28.30;40.20;;;;;;5032508;28;20543;-62
2022/08/11 11:34:56;;;;;;;2.40;1.90;;;28.30;40.80;;;;;;5014635;28;20360;-62
2022/08/11 11:37:24;;;;;;;2.78;1.42;;;28.40;40.20;;;;;;5032542;28;20048;-63
2022/08/11 11:39:52;;;;;;;2.50;1.70;;;28.40;40.10;;;;;;5031432;28;20029;-61
2022/08/11 11:42:20;;;;;;;2.20;1.45;;;28.40;40.10;;;;;;5032400;28;20044;-61
2022/08/11 11:44:46;;;;;;;2.10;1.45;;;28.40;40.20;;;;;;5032265;28;20026;-61
2022/08/11 11:47:13;;;;;;;2.70;1.55;;;28.40;40.50;;;;;;5031068;28;20037;-63
2022/08/11 11:49:42;;;;;;;2.97;1.80;;;28.50;39.80;;;;;;5032163;28;20041;-62
2022/08/11 11:52:17;;;;;;;2.42;1.60;;;28.50;38.90;;;;;;5014048;28;20026;-62
2022/08/11 11:54:50;;;;;;;2.47;1.50;;;28.50;39.80;;;;;;5031995;28;20017;-62
2022/08/11 12:02:52;;;;;;;2.00;1.45;;;28.50;39.30;;;;;;5031796;28;20037;-61
2022/08/11 12:05:19;;;;;;;2.28;1.75;;;28.60;38.90;;;;;;5032009;28;20055;-61
2022/08/11 12:10:31;;;;;;;2.60;1.60;;;28.70;38.20;;;;;;5032321;28;20044;-62
2022/08/11 12:15:46;;;;;;;1.25;1.10;;;28.70;38.80;;;;;;5031513;28;20060;-61
2022/08/11 12:18:14;;;;;;;3.08;1.60;;;28.70;38.90;;;;;;5031528;28;20145;-63
2022/08/11 12:20:40;;;;;;;3.83;1.23;;;28.70;38.80;;;;;;5031494;28;20032;-62
2022/08/11 12:28:35;;;;;;;2.00;1.75;;;29.00;38.70;;;;;;5031288;28;20032;-62
2022/08/11 12:31:03;;;;;;;1.80;1.58;;;29.10;36.90;;;;;;5031121;28;20025;-62
2022/08/11 12:33:28;;;;;;;2.15;1.30;;;29.10;37.20;;;;;;5031647;28;20041;-61
2022/08/11 12:35:59;;;;;;;1.75;1.30;;;29.10;38.20;;;;;;5012916;28;20028;-62
2022/08/11 12:38:25;;;;;;;3.35;1.77;;;29.10;37.80;;;;;;5031413;28;20432;-62
2022/08/11 12:46:24;;;;;;;2.90;1.80;;;29.20;37.80;;;;;;5031208;28;20508;-61
2022/08/11 12:51:57;;;;;;;4.28;1.83;;;29.30;37.60;;;;;;5031209;28;20099;-61
2022/08/11 12:54:44;;;;;;;3.50;1.70;;;29.40;37.00;;;;;;5031328;28;20036;-62
2022/08/11 13:05:48;;;;;;;3.75;1.48;;;29.40;36.80;;;;;;5031285;28;20096;-61
2022/08/11 13:08:15;;;;;;;3.03;1.50;;;29.50;37.70;;;;;;5031042;28;20101;-61
2022/08/11 13:13:27;;;;;;;1.90;1.42;;;29.70;37.20;;;;;;5031115;28;20040;-62
2022/08/11 13:15:53;;;;;;;1.70;1.40;;;29.80;37.10;;;;;;5030713;28;20033;-62
2022/08/11 13:18:21;;;;;;;2.58;1.40;;;29.80;36.80;;;;;;5012457;28;20316;-61
2022/08/11 13:20:48;;;;;;;2.97;1.60;;;29.80;36.20;;;;;;5031026;28;20075;-61
2022/08/11 13:23:15;;;;;;;1.75;1.42;;;29.80;36.90;;;;;;5031158;28;20025;-61
2022/08/11 13:25:42;;;;;;;1.40;1.25;;;29.80;36.80;;;;;;5030201;28;20481;-61
2022/08/11 13:28:09;;;;;;;1.17;1.00;;;29.80;36.40;;;;;;5030814;28;20297;-61
2022/08/11 13:33:20;;;;;;;5.25;1.95;;;29.90;37.00;;;;;;5030370;28;20069;-61
2022/08/11 13:35:50;;;;;;;2.60;1.52;;;29.80;36.10;;;;;;5030776;28;20025;-61
2022/08/11 13:38:18;;;;;;;2.43;1.50;;;29.90;36.40;;;;;;5030062;28;20099;-61
2022/08/11 13:40:45;;;;;;;2.35;1.65;;;29.90;36.20;;;;;;5017257;28;20114;-61
2022/08/11 13:43:13;;;;;;;2.40;1.42;;;30.00;34.90;;;;;;4999438;28;20025;-61
2022/08/11 13:45:39;;;;;;;1.83;1.25;;;30.10;34.60;;;;;;5017001;28;20049;-64
2022/08/11 13:48:09;;;;;;;2.03;1.52;;;30.10;34.30;;;;;;5006183;28;20044;-61
2022/08/11 13:53:22;;;;;;;5.38;1.95;;;30.10;34.80;;;;;;5009369;28;20125;-63
2022/08/11 13:55:49;;;;;;;2.92;1.60;;;30.10;34.70;;;;;;5021878;28;20083;-63
2022/08/11 13:58:16;;;;;;;1.92;1.45;;;30.20;34.70;;;;;;5020115;28;20104;-61
2022/08/11 14:00:47;;;;;;;2.40;1.38;;;30.20;35.20;;;;;;5013559;28;20422;-61
2022/08/11 14:03:13;;;;;;;2.42;1.75;;;30.20;34.30;;;;;;5029594;28;20017;-62
2022/08/11 14:05:46;;;;;;;1.77;1.52;;;30.10;34.30;;;;;;5018442;28;20037;-61
2022/08/11 14:08:17;;;;;;;2.30;1.73;;;30.10;34.70;;;;;;4992315;28;20124;-62
2022/08/11 14:10:43;;;;;;;;;;;30.10;35.90;;;;;;4992936;28;20029;-61
2022/08/11 14:16:03;;;;;;;3.80;1.85;;;30.20;35.00;;;;;;5023734;28;20140;-61
2022/08/11 14:18:31;;;;;;;2.50;1.60;;;30.30;33.40;;;;;;5032901;28;20116;-61
2022/08/11 14:23:53;;;;;;;3.60;1.60;;;30.40;34.20;;;;;;5031666;28;20064;-60
2022/08/11 14:26:27;;;;;;;2.42;1.60;;;30.50;33.50;;;;;;5032433;28;20516;-61
2022/08/11 14:29:07;;;;;;;1.77;1.33;;;30.60;33.40;;;;;;5014708;28;20020;-62
2022/08/11 14:31:35;;;;;;;2.40;1.43;;;30.70;33.20;;;;;;5015110;28;20093;-62
2022/08/11 14:34:05;;;;;;;3.92;1.50;;;30.70;33.60;;;;;;5026682;28;20037;-62
2022/08/11 14:36:37;;;;;;;3.70;2.07;;;30.70;35.10;;;;;;5032156;28;20068;-61
2022/08/11 14:39:12;;;;;;;2.38;1.40;;;30.80;34.00;;;;;;5032726;28;20296;-61
2022/08/11 14:47:18;;;;;;;3.08;1.35;;;30.90;33.50;;;;;;5032290;28;20067;-61
2022/08/11 14:49:45;;;;;;;5.55;1.50;;;31.00;33.00;;;;;;5030625;28;20036;-62
2022/08/11 14:52:16;;;;;;;2.17;1.50;;;31.10;33.10;;;;;;5031957;28;20021;-62
2022/08/11 14:57:28;;;;;;;2.85;1.50;;;31.50;34.00;;;;;;5014582;28;19915;-65
2022/08/11 14:59:56;;;;;;;2.15;1.52;;;31.90;34.10;;;;;;5022834;28;20548;-62
2022/08/11 15:05:07;;;;;;;1.52;1.33;;;33.00;32.80;;;;;;5032230;28;20064;-62
2022/08/11 15:07:33;;;;;;;2.33;1.52;;;33.70;31.90;;;;;;5031868;28;20494;-63
2022/08/11 15:10:04;;;;;;;2.13;1.60;;;34.20;30.70;;;;;;5008690;28;20033;-62
2022/08/11 15:12:31;;;;;;;2.33;1.35;;;34.60;29.50;;;;;;5023445;28;20025;-64
2022/08/11 15:17:43;;;;;;;2.67;1.40;;;35.00;29.70;;;;;;5011224;28;20037;-64
2022/08/11 15:25:48;;;;;;;2.10;1.33;;;35.90;28.90;;;;;;5022284;28;20095;-64
2022/08/11 15:39:23;;;;;;;1.92;1.52;;;37.20;28.80;;;;;;5024514;28;20216;-63
2022/08/11 15:48:05;;;;;;;2.75;1.60;;;38.20;28.50;;;;;;5016786;28;20133;-63
2022/08/11 15:50:33;;;;;;;2.35;1.40;;;38.40;28.00;;;;;;5022085;28;20032;-63
2022/08/11 15:53:03;;;;;;;4.25;1.30;;;38.40;27.50;;;;;;5030384;28;20053;-68
2022/08/11 15:55:33;;;;;;;2.15;1.30;;;38.40;27.70;;;;;;5009603;28;20063;-66
2022/08/11 16:06:34;;;;;;;3.70;1.33;;;39.00;27.50;;;;;;5028546;28;20051;-65
2022/08/11 16:09:04;;;;;;;2.05;1.20;;;38.70;27.30;;;;;;4998145;28;20112;-63
2022/08/11 16:11:33;;;;;;;1.45;1.13;;;38.70;27.30;;;;;;5011413;28;20022;-64
2022/08/11 16:16:48;;;;;;;2.53;1.17;;;38.70;27.80;;;;;;5011620;28;20049;-65
2022/08/11 16:19:17;;;;;;;2.53;1.38;;;38.80;27.50;;;;;;5024900;28;20029;-68
2022/08/11 16:21:43;;;;;;;1.52;1.08;;;39.10;27.40;;;;;;5030161;28;20064;-65
2022/08/11 16:24:11;;;;;;;4.00;1.27;;;39.30;27.40;;;;;;5031143;28;20025;-67
2022/08/11 16:26:41;;;;;;;1.55;1.00;;;39.40;27.30;;;;;;5028602;28;20044;-64
2022/08/11 16:29:09;;;;;;;1.33;1.10;;;39.50;27.20;;;;;;4996155;28;20053;-65
2022/08/11 16:31:35;;;;;;;1.45;1.20;;;39.80;27.10;;;;;;5030473;28;20484;-62
2022/08/11 16:34:02;;;;;;;2.00;1.10;;;39.80;26.90;;;;;;5029872;28;20467;-63
2022/08/11 16:39:17;;;;;;;1.50;0.90;;;39.60;26.60;;;;;;5028199;28;20111;-63
2022/08/11 16:47:17;;;;;;;2.30;1.30;;;39.60;26.30;;;;;;5011591;28;20053;-65
2022/08/11 16:49:53;;;;;;;2.92;1.30;;;39.70;26.30;;;;;;5011569;28;20029;-64
2022/08/11 16:52:21;;;;;;;1.88;1.40;;;39.70;26.20;;;;;;5030472;28;20494;-64
2022/08/11 16:54:47;;;;;;;2.40;1.30;;;39.60;26.50;;;;;;5029572;28;20045;-65
2022/08/11 17:00:13;;;;;;;3.00;1.40;;;39.40;25.90;;;;;;5010726;28;20478;-64
2022/08/11 17:14:24;;;;;;;5.25;3.03;;;39.80;26.20;;;;;;5010670;28;20113;-63
2022/08/11 17:16:51;;;;;;;6.30;4.22;;;39.90;26.10;;;;;;5028449;28;20389;-64
2022/08/11 17:19:30;;;;;;;4.38;2.25;;;39.90;26.20;;;;;;5021576;28;20415;-62
2022/08/11 17:24:44;;;;;;;4.97;3.33;;;39.70;26.10;;;;;;5029758;28;20056;-63
2022/08/11 17:27:15;;;;;;;2.88;1.52;;;39.60;26.20;;;;;;5028746;28;20046;-63
2022/08/11 17:29:46;;;;;;;2.45;1.15;;;39.60;26.20;;;;;;5028144;28;20025;-64
2022/08/11 17:35:29;;;;;;;1.98;1.30;;;39.50;26.20;;;;;;5026392;28;20064;-62
2022/08/11 17:38:16;;;;;;;2.20;1.48;;;38.90;26.60;;;;;;5009899;28;20080;-62
2022/08/11 17:49:13;;;;;;;1.70;1.10;;;35.30;29.00;;;;;;5014075;28;20033;-63
2022/08/11 17:59:57;;;;;;;1.42;1.00;;;33.00;30.60;;;;;;5033474;28;20064;-63
2022/08/11 18:05:11;;;;;;;3.83;1.50;;;32.40;31.60;;;;;;5028256;28;20454;-63
